ACF weather

Brisbane Archerfield Airport
Brisbane, Queensland, Australia

Public forecast

Using degrees Celsius for public forecast. Weather courtesy of forecast.io.

METAR (pilot weather report)

Closest report is Brisbane International Airport, 12.6 nm (23.3 km) NNE. Retrieved 2019/01/23 17:00 UTC (33 minutes ago):

YBBN 231700Z 36012KT CAVOK 25/20 Q1011 NOSIG

TAF (pilot weather forecast)

Closest forecast is Brisbane International Airport, 12.6 nm (23.3 km) NNE. Retrieved 2019/01/23 12:37 UTC (5 hours ago):

TAF YBBN 231128Z 2312/2418 35010KT 9999 FEW020 FM240000 02014KT 9999 FEW030 FM240900 02007KT 9999 SCT020 FM241400 01005KT 9999 -SHRA SCT018 SCT040